KCVO/CVO METAR and TAF weather

Enter ICAO airport designator
Station Type Date Time Source
KCVO METAR 2019/04/19 21:56 UTC NOAA

KCVO 192156Z AUTO 31013KT 10SM BKN026 OVC036 16/12 A2995 RMK AO2 SLP143 T01610117


Station Type Date Time Source
KCVO Decoded METAR 2019/04/19 21:56 UTC NOAA

Corvallis, Corvallis Municipal Airport, OR, United States (KCVO) 44-30N 123-17W
Apr 19, 2019 - 05:56 PM EDT / 2019.04.19 2156 UTC
Wind: from the NW (310 degrees) at 15 MPH (13 KT):0
Visibility: 10 mile(s):0
Sky conditions: overcast
Temperature: 61.0 F (16.1 C)
Dew Point: 53.1 F (11.7 C)
Relative Humidity: 75%
Pressure (altimeter): 29.95 in. Hg (1014 hPa)
ob: KCVO 192156Z AUTO 31013KT 10SM BKN026 OVC036 16/12 A2995 RMK AO2 SLP143 T01610117
cycle: 22

Station Type Date Time Source
KCVO TAF UTC NOAA

Error!

Example: see airport list